Time;durP1;ratioP1;P1;durP2;ratioP2;P2;SDS_P1;SDS_P2;PMS_P1;PMS_P2;Temp;Humidity;BMP_temperature;BMP_pressure;BME280_temperature;BME280_humidity;BME280_pressure;Samples;Min_cycle;Max_cycle;Signal;HPM_P1;HPM_P2
2022/09/22 00:01:53;;;;;;;1999.90;999.90;;;6.40;99.90;;;;;;5016882;28;20084;-64
2022/09/22 00:04:19;;;;;;;1999.90;999.90;;;6.40;99.90;;;;;;5028529;28;20048;-63
2022/09/22 00:06:47;;;;;;;1999.90;999.90;;;6.40;99.90;;;;;;5028146;28;20058;-63
2022/09/22 00:09:15;;;;;;;1999.90;999.90;;;6.30;99.90;;;;;;5040426;28;20120;-63
2022/09/22 00:11:43;;;;;;;1999.90;999.90;;;6.30;99.90;;;;;;5019077;28;20943;-63
2022/09/22 00:14:10;;;;;;;1999.90;999.90;;;6.30;99.90;;;;;;5023810;28;20081;-63
2022/09/22 00:16:43;;;;;;;1999.90;999.90;;;6.20;99.90;;;;;;5027762;28;20106;-63
2022/09/22 00:19:11;;;;;;;1999.90;999.90;;;6.20;99.90;;;;;;5027828;28;20136;-63
2022/09/22 00:21:37;;;;;;;1999.90;999.90;;;6.20;99.90;;;;;;5024059;28;20057;-63
2022/09/22 00:24:05;;;;;;;1999.90;999.90;;;6.20;99.90;;;;;;5020444;28;20033;-63
2022/09/22 00:26:31;;;;;;;1999.90;999.90;;;6.20;99.90;;;;;;5030530;28;20041;-63
2022/09/22 00:28:57;;;;;;;1999.90;999.90;;;6.20;99.90;;;;;;5019995;28;20042;-64
2022/09/22 00:31:25;;;;;;;1999.90;999.90;;;6.20;99.90;;;;;;5018763;28;20073;-63
2022/09/22 00:33:52;;;;;;;1999.90;999.90;;;6.10;99.90;;;;;;5013825;28;20050;-63
2022/09/22 00:36:21;;;;;;;1999.90;999.90;;;6.10;99.90;;;;;;5028829;28;20041;-63
2022/09/22 00:38:50;;;;;;;1999.90;999.90;;;6.10;99.90;;;;;;5039221;28;20100;-64
2022/09/22 00:41:20;;;;;;;1999.90;999.90;;;6.10;99.90;;;;;;5028515;28;20091;-63
2022/09/22 00:43:48;;;;;;;1999.90;999.90;;;6.00;99.90;;;;;;5022121;28;20033;-63
2022/09/22 00:46:24;;;;;;;1999.90;999.90;;;6.00;99.90;;;;;;5024580;28;20049;-63
2022/09/22 00:49:04;;;;;;;1999.90;999.90;;;6.00;99.90;;;;;;5028836;28;20048;-63
2022/09/22 00:51:33;;;;;;;1999.90;999.90;;;5.90;99.90;;;;;;5024431;28;20132;-63
2022/09/22 00:54:03;;;;;;;1999.90;999.90;;;6.00;99.90;;;;;;5004438;28;20132;-63
2022/09/22 00:56:41;;;;;;;1999.90;999.90;;;6.00;99.90;;;;;;5018968;28;20064;-63
2022/09/22 00:59:10;;;;;;;1999.90;999.90;;;6.00;99.90;;;;;;5031145;28;20037;-63
2022/09/22 01:01:39;;;;;;;1999.90;999.90;;;6.00;99.90;;;;;;5016644;28;20138;-63
2022/09/22 01:04:05;;;;;;;1999.90;999.90;;;6.00;99.90;;;;;;5018411;28;20048;-63
2022/09/22 01:06:33;;;;;;;1999.90;999.90;;;5.90;99.90;;;;;;5023927;28;20037;-63
2022/09/22 01:09:00;;;;;;;1999.90;999.90;;;5.90;99.90;;;;;;5027363;28;20129;-64
2022/09/22 01:11:28;;;;;;;1999.90;999.90;;;5.90;99.90;;;;;;5023130;28;20045;-63
2022/09/22 01:14:15;;;;;;;1999.90;999.90;;;5.90;99.90;;;;;;5030786;28;20689;-63
2022/09/22 01:17:07;;;;;;;1999.90;999.90;;;5.80;99.90;;;;;;5021639;28;20052;-63
2022/09/22 01:19:54;;;;;;;1999.90;999.90;;;5.80;99.90;;;;;;5016508;28;20057;-63
2022/09/22 01:22:20;;;;;;;1999.90;999.90;;;5.80;99.90;;;;;;5021721;28;20051;-63
2022/09/22 01:25:05;;;;;;;1999.90;999.90;;;5.80;99.90;;;;;;5021818;28;20422;-63
2022/09/22 01:28:01;;;;;;;1999.90;999.90;;;5.80;99.90;;;;;;5007877;28;20149;-63
2022/09/22 01:30:42;;;;;;;1999.90;999.90;;;5.80;99.90;;;;;;5022875;28;20061;-63
2022/09/22 01:33:37;;;;;;;1999.90;999.90;;;5.80;99.90;;;;;;5015095;28;20099;-63
2022/09/22 01:36:23;;;;;;;1999.90;999.90;;;5.70;99.90;;;;;;5021364;28;20437;-63
2022/09/22 01:38:57;;;;;;;1999.90;999.90;;;5.70;99.90;;;;;;5018172;28;20032;-63
2022/09/22 01:41:44;;;;;;;1999.90;999.90;;;5.70;99.90;;;;;;5027839;28;20492;-63
2022/09/22 01:44:33;;;;;;;1999.90;999.90;;;5.70;99.90;;;;;;5025139;28;20052;-63
2022/09/22 01:47:20;;;;;;;1999.90;999.90;;;5.70;99.90;;;;;;5020667;28;20034;-63
2022/09/22 01:49:50;;;;;;;1999.90;999.90;;;5.70;99.90;;;;;;5011017;28;20046;-63
2022/09/22 01:52:20;;;;;;;1999.90;999.90;;;5.60;99.90;;;;;;5015162;28;20084;-63
2022/09/22 01:54:53;;;;;;;1999.90;999.90;;;5.60;99.90;;;;;;5025206;28;20088;-63
2022/09/22 01:57:56;;;;;;;1999.90;999.90;;;5.60;99.90;;;;;;5013724;28;20045;-63
2022/09/22 02:00:22;;;;;;;;;;;5.60;99.90;;;;;;5012581;28;20410;-63
2022/09/22 02:03:04;;;;;;;1999.90;999.90;;;5.60;99.90;;;;;;5000917;28;20305;-63
2022/09/22 02:05:36;;;;;;;1999.90;999.90;;;5.60;99.90;;;;;;5019737;28;20050;-63
2022/09/22 02:08:08;;;;;;;1999.90;999.90;;;5.50;99.90;;;;;;5020749;28;20052;-63
2022/09/22 02:10:39;;;;;;;1999.90;999.90;;;5.50;99.90;;;;;;5026400;28;20186;-63
2022/09/22 02:13:04;;;;;;;1999.90;999.90;;;5.50;99.90;;;;;;5022626;28;20305;-63
2022/09/22 02:18:21;;;;;;;1999.90;999.90;;;5.50;99.90;;;;;;5041202;28;20068;-63
2022/09/22 02:20:48;;;;;;;1999.90;999.90;;;5.50;99.90;;;;;;5016451;28;20141;-63
2022/09/22 02:23:13;;;;;;;1999.90;999.90;;;5.40;99.90;;;;;;5007809;28;20144;-63
2022/09/22 02:25:40;;;;;;;1999.90;999.90;;;5.40;99.90;;;;;;5025674;28;20140;-63
2022/09/22 02:28:07;;;;;;;1999.90;999.90;;;5.40;99.90;;;;;;5007732;28;20053;-63
2022/09/22 02:30:33;;;;;;;1999.90;999.90;;;5.40;99.90;;;;;;5023837;28;20045;-63
2022/09/22 02:33:00;;;;;;;1999.90;999.90;;;5.40;99.90;;;;;;5002080;28;20050;-63
2022/09/22 02:35:29;;;;;;;1999.90;999.90;;;5.40;99.90;;;;;;5018572;28;20056;-63
2022/09/22 02:38:12;;;;;;;1999.90;999.90;;;5.40;99.90;;;;;;5026204;28;20490;-63
2022/09/22 02:40:47;;;;;;;1999.90;999.90;;;5.40;99.90;;;;;;5025029;28;20083;-63
2022/09/22 02:43:24;;;;;;;1999.90;999.90;;;5.40;99.90;;;;;;5020581;28;20077;-63
2022/09/22 02:46:01;;;;;;;1999.90;999.90;;;5.40;99.90;;;;;;5027745;28;20046;-63
2022/09/22 02:48:32;;;;;;;1999.90;999.90;;;5.40;99.90;;;;;;5037008;28;20401;-63
2022/09/22 02:50:58;;;;;;;1999.90;999.90;;;5.50;99.90;;;;;;5025687;28;20120;-63
2022/09/22 02:53:23;;;;;;;1999.90;999.90;;;5.50;99.90;;;;;;5024674;28;20045;-63
2022/09/22 02:55:49;;;;;;;1999.90;999.90;;;5.50;99.90;;;;;;5023115;28;20038;-63
2022/09/22 02:58:15;;;;;;;1999.90;999.90;;;5.50;99.90;;;;;;5024669;28;20042;-63
2022/09/22 03:00:42;;;;;;;1999.90;999.90;;;5.50;99.90;;;;;;5034754;28;20067;-63
2022/09/22 03:03:10;;;;;;;1999.90;999.90;;;5.50;99.90;;;;;;5016816;28;20056;-63
2022/09/22 03:05:36;;;;;;;1999.90;999.90;;;5.50;99.90;;;;;;5026039;28;20057;-63
2022/09/22 03:08:02;;;;;;;1999.90;999.90;;;5.50;99.90;;;;;;5029708;28;20448;-63
2022/09/22 03:10:28;;;;;;;1999.90;999.90;;;5.50;99.90;;;;;;5029854;28;20049;-63
2022/09/22 03:12:56;;;;;;;1999.90;999.90;;;5.40;99.90;;;;;;5030085;28;20071;-63
2022/09/22 03:15:21;;;;;;;1999.90;999.90;;;5.40;99.90;;;;;;5012802;28;20042;-64
2022/09/22 03:17:47;;;;;;;1999.90;999.90;;;5.40;99.90;;;;;;5035934;28;20048;-64
2022/09/22 03:20:13;;;;;;;1999.90;999.90;;;5.40;99.90;;;;;;5005804;28;20033;-63
2022/09/22 03:22:39;;;;;;;1999.90;999.90;;;5.40;99.90;;;;;;5026163;28;20060;-63
2022/09/22 03:25:06;;;;;;;1999.90;999.90;;;5.40;99.90;;;;;;5021154;28;20046;-64
2022/09/22 03:27:31;;;;;;;1999.90;999.90;;;5.40;99.90;;;;;;5006270;28;20041;-63
2022/09/22 03:29:57;;;;;;;1999.90;999.90;;;5.40;99.90;;;;;;5017366;28;20049;-63
2022/09/22 03:32:23;;;;;;;1999.90;999.90;;;5.30;99.90;;;;;;5030278;28;20046;-63
2022/09/22 03:34:48;;;;;;;1999.90;999.90;;;5.30;99.90;;;;;;5016385;28;20041;-63
2022/09/22 03:37:15;;;;;;;1999.90;999.90;;;5.30;99.90;;;;;;5022703;28;20041;-63
2022/09/22 03:39:41;;;;;;;1999.90;999.90;;;5.30;99.90;;;;;;5019740;28;20409;-63
2022/09/22 03:42:07;;;;;;;1999.90;999.90;;;5.30;99.90;;;;;;5030410;28;20091;-63
2022/09/22 03:44:33;;;;;;;1999.90;999.90;;;5.30;99.90;;;;;;5027198;28;20144;-63
2022/09/22 03:46:59;;;;;;;1999.90;999.90;;;5.30;99.90;;;;;;5038644;28;20518;-63
2022/09/22 03:49:24;;;;;;;1999.90;999.90;;;5.30;99.90;;;;;;5000289;28;20037;-63
2022/09/22 03:51:50;;;;;;;1999.90;999.90;;;5.30;99.90;;;;;;5028934;28;20481;-63
2022/09/22 03:54:16;;;;;;;1999.90;999.90;;;5.30;99.90;;;;;;5025319;28;20041;-64
2022/09/22 03:56:41;;;;;;;1999.90;999.90;;;5.30;99.90;;;;;;5026836;28;20056;-63
2022/09/22 03:59:09;;;;;;;1999.90;999.90;;;5.40;99.90;;;;;;5021829;28;20041;-63
2022/09/22 04:01:34;;;;;;;1999.90;999.90;;;5.40;99.90;;;;;;5020969;28;20056;-63
2022/09/22 04:04:00;;;;;;;1999.90;999.90;;;5.30;99.90;;;;;;5007637;28;20467;-64
2022/09/22 04:06:26;;;;;;;1999.90;999.90;;;5.40;99.90;;;;;;5033182;28;20048;-64
2022/09/22 04:08:51;;;;;;;1999.90;999.90;;;5.40;99.90;;;;;;5024089;28;20806;-64
2022/09/22 04:11:17;;;;;;;1999.90;999.90;;;5.40;99.90;;;;;;4999025;28;20049;-64
2022/09/22 04:13:42;;;;;;;1999.90;999.90;;;5.30;99.90;;;;;;5016927;28;20132;-64
2022/09/22 04:16:08;;;;;;;1999.90;999.90;;;5.30;99.90;;;;;;5012310;28;20037;-64
2022/09/22 04:18:38;;;;;;;1999.90;999.90;;;5.30;99.90;;;;;;5020833;28;20038;-64
2022/09/22 04:21:04;;;;;;;1999.90;999.90;;;5.20;99.90;;;;;;5022735;28;20084;-64
2022/09/22 04:23:30;;;;;;;1999.90;999.90;;;5.20;99.90;;;;;;5028427;28;20045;-64
2022/09/22 04:25:55;;;;;;;1999.90;999.90;;;5.20;99.90;;;;;;5015213;28;20037;-64
2022/09/22 04:28:21;;;;;;;1999.90;999.90;;;5.20;99.90;;;;;;5010788;28;20029;-64
2022/09/22 04:30:47;;;;;;;1999.90;999.90;;;5.20;99.90;;;;;;5023663;28;20140;-64
2022/09/22 04:33:12;;;;;;;1999.90;999.90;;;5.20;99.90;;;;;;5033658;28;20092;-64
2022/09/22 04:35:38;;;;;;;1999.90;999.90;;;5.10;99.90;;;;;;5029333;28;20095;-64
2022/09/22 04:38:04;;;;;;;1999.90;999.90;;;5.10;99.90;;;;;;5026027;28;20478;-64
2022/09/22 04:40:29;;;;;;;1999.90;999.90;;;5.10;99.90;;;;;;5032791;28;20034;-64
2022/09/22 04:42:56;;;;;;;1999.90;999.90;;;5.10;99.90;;;;;;5029882;28;20041;-64
2022/09/22 04:45:21;;;;;;;1999.90;999.90;;;5.10;99.90;;;;;;5030536;28;20087;-64
2022/09/22 04:47:49;;;;;;;1999.90;999.90;;;5.00;99.90;;;;;;5017973;28;20045;-64
2022/09/22 04:50:16;;;;;;;1999.90;999.90;;;5.00;99.90;;;;;;5026876;28;20076;-64
2022/09/22 04:52:46;;;;;;;1999.90;999.90;;;5.00;99.90;;;;;;5017285;28;20041;-64
2022/09/22 04:55:13;;;;;;;1999.90;999.90;;;5.00;99.90;;;;;;5039487;28;20050;-64
2022/09/22 04:57:38;;;;;;;1999.90;999.90;;;5.00;99.90;;;;;;5023398;28;20038;-64
2022/09/22 05:00:05;;;;;;;1999.90;999.90;;;5.00;99.90;;;;;;5025217;28;20041;-64
2022/09/22 05:02:30;;;;;;;1999.90;999.90;;;4.90;99.90;;;;;;5027967;28;20045;-64
2022/09/22 05:04:56;;;;;;;1999.90;999.90;;;4.90;99.90;;;;;;5023924;28;20044;-64
2022/09/22 05:07:22;;;;;;;1999.90;999.90;;;4.90;99.90;;;;;;5020559;28;20183;-64
2022/09/22 05:09:48;;;;;;;1999.90;999.90;;;4.80;99.90;;;;;;5017318;28;20084;-64
2022/09/22 05:12:13;;;;;;;1999.90;999.90;;;4.80;99.90;;;;;;5001711;28;20449;-64
2022/09/22 05:14:39;;;;;;;1999.90;999.90;;;4.80;99.90;;;;;;5024800;28;20540;-64
2022/09/22 05:17:05;;;;;;;1999.90;999.90;;;4.80;99.90;;;;;;5030905;28;20063;-64
2022/09/22 05:19:31;;;;;;;1999.90;999.90;;;4.70;99.90;;;;;;5019634;28;20091;-64
2022/09/22 05:21:56;;;;;;;1999.90;999.90;;;4.80;99.90;;;;;;5008583;28;20041;-64
2022/09/22 05:24:22;;;;;;;1999.90;999.90;;;4.70;99.90;;;;;;5020574;28;20103;-64
2022/09/22 05:26:47;;;;;;;1999.90;999.90;;;4.70;99.90;;;;;;5026748;28;20100;-64
2022/09/22 05:29:13;;;;;;;1999.90;999.90;;;4.70;99.90;;;;;;5031572;28;20037;-64
2022/09/22 05:31:39;;;;;;;1999.90;999.90;;;4.70;99.90;;;;;;5014833;28;20049;-64
2022/09/22 05:34:04;;;;;;;1999.90;999.90;;;4.70;99.90;;;;;;5017897;28;20495;-64
2022/09/22 05:36:30;;;;;;;1999.90;999.90;;;4.70;99.90;;;;;;5019235;28;20486;-64
2022/09/22 05:38:55;;;;;;;1999.90;999.90;;;4.80;99.90;;;;;;5018030;28;20127;-64
2022/09/22 05:41:21;;;;;;;1999.90;999.90;;;4.80;99.90;;;;;;5025233;28;20565;-64
2022/09/22 05:43:47;;;;;;;1999.90;999.90;;;4.80;99.90;;;;;;5019267;28;20049;-64
2022/09/22 05:46:12;;;;;;;1999.90;999.90;;;4.80;99.90;;;;;;5012198;28;20049;-64
2022/09/22 05:48:38;;;;;;;1999.90;999.90;;;4.80;99.90;;;;;;5025538;28;20060;-64
2022/09/22 05:51:03;;;;;;;1999.90;999.90;;;4.80;99.90;;;;;;5027623;28;20512;-64
2022/09/22 05:53:29;;;;;;;1999.90;999.90;;;4.80;99.90;;;;;;5025757;28;20047;-64
2022/09/22 05:55:55;;;;;;;1999.90;999.90;;;4.80;99.90;;;;;;5026724;28;20052;-64
2022/09/22 05:58:22;;;;;;;1999.90;999.90;;;4.80;99.90;;;;;;5014544;28;21282;-64
2022/09/22 06:00:47;;;;;;;1999.90;999.90;;;4.90;99.90;;;;;;5029529;28;20077;-64
2022/09/22 06:03:13;;;;;;;1999.90;999.90;;;4.90;99.90;;;;;;5008440;28;20446;-64
2022/09/22 06:05:38;;;;;;;1999.90;999.90;;;5.00;99.90;;;;;;5017816;28;20050;-64
2022/09/22 06:08:05;;;;;;;1999.90;999.90;;;5.00;99.90;;;;;;5023816;28;20116;-64
2022/09/22 06:10:35;;;;;;;1999.90;999.90;;;5.00;99.90;;;;;;5027978;28;20152;-64
2022/09/22 06:13:03;;;;;;;1999.90;999.90;;;5.10;99.90;;;;;;5019014;28;20126;-64
2022/09/22 06:15:29;;;;;;;1999.90;999.90;;;5.20;99.90;;;;;;5024468;28;20033;-64
2022/09/22 06:17:55;;;;;;;1999.90;999.90;;;5.30;99.90;;;;;;5035854;28;20496;-64
2022/09/22 06:20:21;;;;;;;1999.90;999.90;;;5.40;99.90;;;;;;5026189;28;20041;-64
2022/09/22 06:22:47;;;;;;;1999.90;999.90;;;5.60;99.90;;;;;;5017681;28;20806;-64
2022/09/22 06:25:14;;;;;;;1999.90;999.90;;;5.80;99.90;;;;;;5021135;28;20053;-64
2022/09/22 06:27:39;;;;;;;1999.90;999.90;;;6.00;99.90;;;;;;5024679;28;20107;-64
2022/09/22 06:30:08;;;;;;;1999.90;999.90;;;6.20;99.90;;;;;;5015057;28;20573;-64
2022/09/22 06:32:35;;;;;;;1999.90;999.90;;;6.30;99.90;;;;;;5030190;28;20059;-64
2022/09/22 06:35:01;;;;;;;1999.90;999.90;;;6.50;99.90;;;;;;5022287;28;20156;-64
2022/09/22 06:37:27;;;;;;;1999.90;999.90;;;6.60;99.90;;;;;;5019028;28;20493;-64
2022/09/22 06:39:53;;;;;;;1999.90;999.90;;;6.70;99.90;;;;;;5020564;28;20425;-64
2022/09/22 06:42:19;;;;;;;1999.90;999.90;;;6.80;99.90;;;;;;5024773;28;20044;-64
2022/09/22 06:44:44;;;;;;;1999.90;999.90;;;6.90;99.90;;;;;;5007962;28;20053;-64
2022/09/22 06:47:11;;;;;;;1999.90;999.90;;;7.00;99.90;;;;;;5034734;28;20049;-64
2022/09/22 06:49:36;;;;;;;1999.90;999.90;;;7.10;99.90;;;;;;5022261;28;20058;-64
2022/09/22 06:52:02;;;;;;;1999.90;999.90;;;7.20;99.90;;;;;;5030808;28;20370;-64
2022/09/22 06:54:28;;;;;;;1999.90;999.90;;;7.30;99.90;;;;;;5038338;28;20128;-64
2022/09/22 06:56:54;;;;;;;1999.90;999.90;;;7.40;99.90;;;;;;5026934;28;20056;-64
2022/09/22 06:59:20;;;;;;;1999.90;999.90;;;7.50;99.90;;;;;;5022779;28;20037;-64
2022/09/22 07:01:45;;;;;;;1999.90;999.90;;;7.60;99.90;;;;;;5026163;28;20413;-64
2022/09/22 07:04:11;;;;;;;1999.90;999.90;;;7.70;99.90;;;;;;5009089;28;20041;-64
2022/09/22 07:06:38;;;;;;;1999.90;999.90;;;7.90;99.90;;;;;;5037640;28;20528;-64
2022/09/22 07:09:04;;;;;;;1999.90;999.90;;;8.10;99.90;;;;;;5020138;28;20100;-64
2022/09/22 07:11:30;;;;;;;1999.90;999.90;;;8.40;99.90;;;;;;5025497;28;20041;-64
2022/09/22 07:13:57;;;;;;;1999.90;999.90;;;8.70;99.90;;;;;;5018140;28;20048;-64
2022/09/22 07:16:25;;;;;;;1999.90;999.90;;;8.90;99.90;;;;;;5024363;28;20378;-64
2022/09/22 07:18:53;;;;;;;1999.90;999.90;;;9.10;99.90;;;;;;5030490;28;20048;-64
2022/09/22 07:21:26;;;;;;;1999.90;999.90;;;9.30;99.90;;;;;;5027116;28;20640;-64
2022/09/22 07:23:54;;;;;;;;;;;9.40;99.90;;;;;;5029656;28;20111;-64
2022/09/22 07:26:25;;;;;;;1999.90;999.90;;;9.50;99.90;;;;;;5028628;28;19921;-64
2022/09/22 07:28:52;;;;;;;1999.90;999.90;;;9.60;99.90;;;;;;5026977;28;20041;-64
2022/09/22 07:31:18;;;;;;;1999.90;999.90;;;9.70;99.90;;;;;;5043642;28;20606;-64
2022/09/22 07:33:44;;;;;;;1999.90;999.90;;;9.80;99.90;;;;;;5026882;28;20045;-64
2022/09/22 07:36:17;;;;;;;1999.90;999.90;;;10.00;99.90;;;;;;5024656;28;20379;-64
2022/09/22 07:38:48;;;;;;;1999.90;999.90;;;10.20;99.90;;;;;;5027352;28;21039;-64
2022/09/22 07:41:19;;;;;;;1999.90;999.90;;;10.30;99.90;;;;;;5025197;28;20064;-64
2022/09/22 07:43:47;;;;;;;1999.90;999.90;;;10.30;99.90;;;;;;5028049;28;20045;-64
2022/09/22 07:46:13;;;;;;;1999.90;999.90;;;10.40;99.90;;;;;;5027066;28;20045;-64
2022/09/22 07:48:45;;;;;;;1999.90;999.90;;;10.50;99.90;;;;;;5027635;28;20056;-64
2022/09/22 07:51:18;;;;;;;1999.90;999.90;;;10.70;99.90;;;;;;5027817;28;20034;-64
2022/09/22 07:53:46;;;;;;;1999.90;999.90;;;10.80;99.90;;;;;;5029386;28;20046;-64
2022/09/22 07:56:14;;;;;;;1999.90;999.90;;;10.90;99.90;;;;;;5026077;28;20073;-64
2022/09/22 07:58:44;;;;;;;1999.90;999.90;;;11.10;99.90;;;;;;5027294;28;20034;-64
2022/09/22 08:01:11;;;;;;;1999.90;999.90;;;11.30;99.90;;;;;;5028805;28;20151;-64
2022/09/22 08:03:37;;;;;;;1999.90;999.90;;;11.50;99.90;;;;;;5027463;28;20037;-64
2022/09/22 08:06:10;;;;;;;1999.90;999.90;;;11.60;99.90;;;;;;5029833;28;20053;-64
2022/09/22 08:08:52;;;;;;;1999.90;999.90;;;11.90;99.90;;;;;;5024765;28;20057;-64
2022/09/22 08:11:37;;;;;;;1999.90;999.90;;;12.10;99.90;;;;;;5025942;28;20517;-64
2022/09/22 08:14:05;;;;;;;1999.90;999.90;;;12.20;99.90;;;;;;5024861;28;20119;-64
2022/09/22 08:16:34;;;;;;;1999.90;999.90;;;12.30;99.90;;;;;;5027116;28;20037;-65
2022/09/22 08:19:02;;;;;;;1999.90;999.90;;;12.50;99.90;;;;;;4995359;28;20115;-65
2022/09/22 08:21:31;;;;;;;1999.90;999.90;;;12.70;99.90;;;;;;5008933;28;20091;-64
2022/09/22 08:23:58;;;;;;;1999.90;999.90;;;12.90;99.90;;;;;;5010916;28;20083;-64
2022/09/22 08:26:24;;;;;;;1999.90;999.90;;;13.10;99.90;;;;;;5026790;28;20037;-64
2022/09/22 08:28:54;;;;;;;1999.90;999.90;;;13.20;99.90;;;;;;5025670;28;20495;-64
2022/09/22 08:31:21;;;;;;;1999.90;999.90;;;13.30;99.90;;;;;;5025489;28;20053;-65
2022/09/22 08:33:48;;;;;;;1999.90;999.90;;;13.60;99.90;;;;;;5025536;28;20112;-64
2022/09/22 08:36:14;;;;;;;1999.90;999.90;;;13.80;99.90;;;;;;5025936;28;20160;-64
2022/09/22 08:38:40;;;;;;;1999.90;999.90;;;13.90;99.90;;;;;;5026191;28;20073;-64
2022/09/22 08:41:06;;;;;;;1999.90;999.90;;;14.10;99.90;;;;;;5023423;28;20048;-65
2022/09/22 08:43:32;;;;;;;1999.90;999.90;;;14.60;99.90;;;;;;5040399;28;20037;-65
2022/09/22 08:46:02;;;;;;;1999.90;999.90;;;15.70;99.90;;;;;;5022926;28;20041;-65
2022/09/22 08:54:04;;;;;;;1999.90;999.90;;;18.10;99.90;;;;;;5025435;28;20045;-64
2022/09/22 08:56:37;;;;;;;1999.90;999.90;;;18.60;99.90;;;;;;5025835;28;20120;-65
2022/09/22 08:59:23;;;;;;;1999.90;999.90;;;19.00;99.90;;;;;;5027969;28;20901;-65
2022/09/22 09:02:14;;;;;;;1999.90;999.90;;;19.30;99.90;;;;;;5023024;28;20440;-65
2022/09/22 09:05:03;;;;;;;1999.90;999.90;;;19.80;99.90;;;;;;5026587;28;20436;-65
2022/09/22 09:07:59;;;;;;;1999.90;999.90;;;20.20;99.90;;;;;;5006315;28;20529;-66
2022/09/22 09:11:10;;;;;;;1999.90;999.90;;;20.50;99.90;;;;;;5025639;28;20049;-65
2022/09/22 09:13:40;;;;;;;1999.90;999.90;;;20.60;99.90;;;;;;4977094;28;20061;-65
2022/09/22 09:16:32;;;;;;;1999.90;999.90;;;20.70;99.90;;;;;;5026383;28;20041;-65
2022/09/22 09:19:10;;;;;;;1999.90;999.90;;;20.70;99.90;;;;;;5022797;28;20132;-65
2022/09/22 09:21:38;;;;;;;1999.90;999.90;;;20.90;99.90;;;;;;5019132;28;20464;-65
2022/09/22 09:24:13;;;;;;;1999.90;999.90;;;21.00;99.90;;;;;;5023846;28;20049;-65
2022/09/22 09:26:39;;;;;;;1999.90;999.90;;;21.20;99.90;;;;;;5023994;28;20042;-65
2022/09/22 09:29:11;;;;;;;1999.90;999.90;;;21.30;99.90;;;;;;5020712;28;20552;-65
2022/09/22 09:31:40;;;;;;;1999.90;999.90;;;21.40;99.90;;;;;;5008281;28;20140;-65
2022/09/22 09:34:13;;;;;;;1999.90;999.90;;;21.10;99.90;;;;;;5014315;28;20047;-65
2022/09/22 09:36:42;;;;;;;1999.90;999.90;;;21.10;99.90;;;;;;5015728;28;20049;-65
2022/09/22 09:39:35;;;;;;;1999.90;999.90;;;21.20;99.90;;;;;;5014333;28;20064;-65
2022/09/22 09:42:12;;;;;;;1999.90;999.90;;;21.50;99.90;;;;;;5027942;28;20445;-65
2022/09/22 09:44:38;;;;;;;1999.90;999.90;;;21.50;99.40;;;;;;5028160;28;20059;-65
2022/09/22 09:47:22;;;;;;;1999.90;999.90;;;21.10;98.10;;;;;;4999128;28;20053;-65
2022/09/22 09:49:50;;;;;;;1999.90;999.90;;;21.10;99.60;;;;;;5026307;28;20048;-65
2022/09/22 09:52:15;;;;;;;1999.90;999.90;;;21.20;98.90;;;;;;5012139;28;20049;-65
2022/09/22 09:54:43;;;;;;;1999.90;999.90;;;21.00;98.60;;;;;;5019505;28;20029;-65
2022/09/22 09:57:14;;;;;;;1999.90;999.90;;;21.00;98.10;;;;;;5027992;28;20192;-65
2022/09/22 10:02:33;;;;;;;1999.90;999.90;;;21.00;98.40;;;;;;5010135;28;20401;-65
2022/09/22 10:05:01;;;;;;;1999.90;999.90;;;20.90;97.80;;;;;;4994967;28;20096;-65
2022/09/22 10:07:38;;;;;;;1999.90;999.90;;;20.90;98.20;;;;;;5015474;28;20057;-65
2022/09/22 10:10:28;;;;;;;1999.90;999.90;;;20.90;98.10;;;;;;5011263;28;20050;-65
2022/09/22 10:13:03;;;;;;;1999.90;999.90;;;20.80;98.10;;;;;;5007510;28;20053;-65
2022/09/22 10:15:31;;;;;;;1999.90;999.90;;;20.90;98.30;;;;;;5019399;28;20100;-65
2022/09/22 10:17:56;;;;;;;1999.90;999.90;;;20.80;97.50;;;;;;5015946;28;20076;-65
2022/09/22 10:20:30;;;;;;;1999.90;999.90;;;20.80;97.30;;;;;;5018863;28;20068;-65
2022/09/22 10:23:22;;;;;;;1999.90;999.90;;;20.70;95.40;;;;;;5013948;28;20049;-65
2022/09/22 10:25:49;;;;;;;1999.90;999.90;;;20.60;96.10;;;;;;5017722;28;20033;-65
2022/09/22 10:28:20;;;;;;;1999.90;999.90;;;20.60;96.60;;;;;;5023901;28;20049;-65
2022/09/22 10:31:02;;;;;;;1999.90;999.90;;;20.70;95.30;;;;;;5019090;28;20572;-65
2022/09/22 10:33:28;;;;;;;1999.90;999.90;;;20.60;94.80;;;;;;5020960;28;20034;-65
2022/09/22 10:36:02;;;;;;;1999.90;999.90;;;20.60;95.60;;;;;;5023270;28;20037;-65
2022/09/22 10:38:31;;;;;;;1999.90;999.90;;;20.70;95.60;;;;;;5024069;28;20529;-65
2022/09/22 10:41:06;;;;;;;1999.90;999.90;;;20.80;94.80;;;;;;5013805;28;20049;-65
2022/09/22 10:43:50;;;;;;;1999.90;999.90;;;20.90;94.50;;;;;;5015503;28;20029;-65
2022/09/22 10:46:34;;;;;;;1999.90;999.90;;;20.90;92.50;;;;;;5019902;28;20044;-65
2022/09/22 10:49:34;;;;;;;1999.90;999.90;;;20.80;92.20;;;;;;5018488;28;20676;-66
2022/09/22 10:51:59;;;;;;;1999.90;999.90;;;20.70;90.70;;;;;;5016372;28;20118;-65
2022/09/22 10:54:41;;;;;;;1999.90;999.90;;;20.70;90.30;;;;;;5022748;28;20493;-65
2022/09/22 10:57:30;;;;;;;1999.90;999.90;;;20.50;91.60;;;;;;5044156;28;20124;-65
2022/09/22 11:00:19;;;;;;;1999.90;999.90;;;20.50;91.80;;;;;;5015686;28;20485;-65
2022/09/22 11:02:56;;;;;;;1999.90;999.90;;;20.30;90.30;;;;;;5018865;28;20393;-65
2022/09/22 11:14:20;;;;;;;1999.90;999.90;;;20.50;92.20;;;;;;5035672;28;20045;-65
2022/09/22 11:17:14;;;;;;;1999.90;999.90;;;20.30;91.20;;;;;;5020836;28;20496;-65
2022/09/22 11:20:08;;;;;;;1999.90;999.90;;;19.90;90.80;;;;;;4988198;28;20521;-65
2022/09/22 11:22:52;;;;;;;1999.90;999.90;;;19.70;91.70;;;;;;5013092;28;20049;-65
2022/09/22 11:25:48;;;;;;;1999.90;999.90;;;19.60;92.30;;;;;;5012913;28;20394;-66
2022/09/22 11:28:47;;;;;;;1999.90;999.90;;;20.00;92.90;;;;;;5027993;28;20041;-65
2022/09/22 11:31:36;;;;;;;1999.90;999.90;;;20.40;91.80;;;;;;5013996;28;20053;-65
2022/09/22 11:34:23;;;;;;;1999.90;999.90;;;20.90;92.30;;;;;;5024435;28;20052;-65
2022/09/22 11:36:58;;;;;;;1999.90;999.90;;;21.10;90.40;;;;;;5013131;28;20049;-65
2022/09/22 11:39:37;;;;;;;1999.90;999.90;;;21.20;90.50;;;;;;5024969;28;20402;-65
2022/09/22 11:42:18;;;;;;;1999.90;999.90;;;21.30;90.40;;;;;;5023805;28;20073;-65
2022/09/22 11:44:59;;;;;;;1999.90;999.90;;;21.30;87.90;;;;;;5035132;28;20038;-65
2022/09/22 11:47:46;;;;;;;1999.90;999.90;;;21.20;87.60;;;;;;5010023;28;20041;-65
2022/09/22 11:50:28;;;;;;;1999.90;999.90;;;21.10;86.10;;;;;;5047818;28;20052;-65
2022/09/22 11:53:22;;;;;;;1999.90;999.90;;;20.80;86.40;;;;;;5028751;28;20044;-65
2022/09/22 11:56:11;;;;;;;1999.90;999.90;;;20.70;86.60;;;;;;5020556;28;20405;-65
2022/09/22 11:58:39;;;;;;;1999.90;999.90;;;20.60;86.00;;;;;;5018482;28;20053;-65
2022/09/22 12:01:10;;;;;;;1999.90;999.90;;;20.60;86.30;;;;;;5018746;28;20045;-65
2022/09/22 12:03:46;;;;;;;1999.90;999.90;;;20.60;87.20;;;;;;5022066;28;20042;-65
2022/09/22 12:06:17;;;;;;;1999.90;999.90;;;20.40;87.90;;;;;;5007688;28;20033;-65
2022/09/22 12:08:52;;;;;;;1999.90;999.90;;;20.20;88.20;;;;;;5018834;28;20045;-66
2022/09/22 12:11:19;;;;;;;1999.90;999.90;;;20.10;88.20;;;;;;5027417;28;20053;-65
2022/09/22 12:13:49;;;;;;;1999.90;999.90;;;20.30;87.80;;;;;;5045290;28;20686;-65
2022/09/22 12:16:48;;;;;;;1999.90;999.90;;;20.30;88.30;;;;;;5027418;28;20397;-65
2022/09/22 12:19:42;;;;;;;1999.90;999.90;;;20.40;86.40;;;;;;5014474;28;20053;-65
2022/09/22 12:22:36;;;;;;;1999.90;999.90;;;20.30;85.80;;;;;;4987641;28;20072;-65
2022/09/22 12:25:02;;;;;;;1999.90;999.90;;;20.20;87.40;;;;;;5024135;28;20041;-65
2022/09/22 12:27:29;;;;;;;1999.90;999.90;;;20.30;86.60;;;;;;5020395;28;20048;-65
2022/09/22 12:30:06;;;;;;;1999.90;999.90;;;20.40;86.10;;;;;;5013493;28;20719;-66
2022/09/22 12:32:38;;;;;;;1999.90;999.90;;;20.40;86.30;;;;;;5041891;28;20060;-65
2022/09/22 12:35:05;;;;;;;1999.90;999.90;;;20.40;86.40;;;;;;5014095;28;20064;-65
2022/09/22 12:37:40;;;;;;;1999.90;999.90;;;20.40;84.90;;;;;;5017755;28;20108;-65
2022/09/22 12:40:26;;;;;;;1999.90;999.90;;;20.20;85.20;;;;;;5016239;28;20041;-65
2022/09/22 12:42:53;;;;;;;1999.90;999.90;;;20.00;85.70;;;;;;5012539;28;20540;-65
2022/09/22 12:45:21;;;;;;;1999.90;999.90;;;19.80;84.40;;;;;;5019824;28;20076;-65
2022/09/22 12:47:49;;;;;;;1999.90;999.90;;;19.50;85.40;;;;;;5030587;28;20051;-65